Terminal Aerodrome Forecast
Issued by NWS

Home | Current Version | Previous Version | Text Only | Print | Product List | Glossary On
Versions: 1 2 3 4 5 6 7 8 9 10 11 12 13 14 15 16 17
000
FTUS45 KABQ 231100
TAFROW
TAF
KROW 231128Z 2312/2412 12005KT 6SM BR OVC060
      TEMPO 2312/2316 4SM BR BKN025 OVC040
     FM232000 18010G20KT P6SM FEW025 BKN050
     FM232300 21005KT P6SM BKN050
     FM240400 24005KT P6SM VCFG SCT015 OVC040=

USA.gov is the U.S. government's official web portal to all federal, state and local government web resources and services.